Mathews, Virginia
Current Conditions -  °F | °C
As of 11:55 AM on Thursday 27 Nov 2014 (Local Time) from KW75 Reporting Station
Overcast Overcast  
Wind Chill: 41°   Ceiling: 600
Heat Index: 41°   Visibility: 5mi
Dew Point: 40°   Wind: 3mph
Humidity: 95%   Direction: 310°NW
Pressure: 30.03"   Gusts: NA
Location:  37.44°N, 76.32°W
Report Text: KW75 271655Z AUTO 31003KT 5SM OVC006 05/04 A3003 RMK AO1 P0002 T00510043
Loading
Personal Weather Stations






























Interactive Weather Map New forecast layout! Learn more

10-Day Weather Forecast

Advertisements
Track Severe Weather on mobile